createdAt,value
2019-05-05T00:07:51.822Z,5.90
2019-05-05T00:16:54.658Z,5.30
2019-05-05T00:19:35.979Z,5.60
2019-05-05T00:22:04.545Z,5.50
2019-05-05T00:24:54.484Z,5.70
2019-05-05T00:27:34.708Z,5.70
2019-05-05T00:30:14.479Z,5.80
2019-05-05T00:32:54.847Z,5.40
2019-05-05T00:35:34.625Z,5.70
2019-05-05T00:38:15.026Z,5.70
2019-05-05T00:40:55.255Z,5.70
2019-05-05T00:43:35.414Z,5.60
2019-05-05T00:52:24.520Z,5.60
2019-05-05T00:55:04.638Z,5.80
2019-05-05T00:57:45.335Z,5.40
2019-05-05T01:00:44.683Z,5.50
2019-05-05T01:03:26.391Z,5.50
2019-05-05T01:06:26.035Z,5.60
2019-05-05T01:09:07.873Z,5.80
2019-05-05T01:11:48.158Z,5.70
2019-05-05T01:14:28.411Z,5.40
2019-05-05T01:17:08.600Z,5.70
2019-05-05T01:20:00.222Z,5.60
2019-05-05T01:22:30.803Z,5.60
2019-05-05T01:25:10.959Z,5.60
2019-05-05T01:27:50.994Z,5.60
2019-05-05T01:30:34.975Z,5.80
2019-05-05T01:36:14.901Z,5.70
2019-05-05T01:39:04.146Z,5.50
2019-05-05T01:41:47.390Z,5.60
2019-05-05T01:44:27.429Z,5.50
2019-05-05T01:47:07.405Z,5.30
2019-05-05T01:49:47.616Z,5.50
2019-05-05T01:52:27.815Z,5.50
2019-05-05T01:55:07.883Z,5.50
2019-05-05T01:57:35.525Z,5.50
2019-05-05T02:00:22.547Z,5.50
2019-05-05T02:03:04.310Z,5.60
2019-05-05T02:05:31.691Z,5.50
2019-05-05T02:07:59.285Z,5.50
2019-05-05T02:10:27.005Z,5.50
2019-05-05T02:12:55.157Z,5.50
2019-05-05T02:15:24.906Z,5.50
2019-05-05T02:17:52.217Z,5.50
2019-05-05T02:21:00.218Z,5.50
2019-05-05T02:23:28.202Z,5.50
2019-05-05T02:25:55.888Z,5.50
2019-05-05T02:28:25.412Z,5.50
2019-05-05T02:31:18.195Z,5.50
2019-05-05T02:33:46.093Z,5.50
2019-05-05T02:36:15.983Z,5.50
2019-05-05T02:38:46.317Z,5.40
2019-05-05T02:41:15.509Z,5.40
2019-05-05T02:43:44.942Z,5.40
2019-05-05T02:46:25.365Z,5.30
2019-05-05T02:48:55.283Z,5.30
2019-05-05T02:51:25.656Z,5.20
2019-05-05T02:53:55.857Z,5.20
2019-05-05T02:56:29.537Z,5.20
2019-05-05T02:59:00.923Z,5.20
2019-05-05T03:01:37.043Z,5.10
2019-05-05T03:04:06.089Z,5.10
2019-05-05T03:06:34.992Z,5.00
2019-05-05T03:09:06.215Z,5.00
2019-05-05T03:11:34.677Z,5.00
2019-05-05T03:14:05.431Z,4.90
2019-05-05T03:16:38.051Z,4.90
2019-05-05T03:19:07.512Z,4.80
2019-05-05T03:21:35.694Z,4.80
2019-05-05T03:24:03.919Z,4.70
2019-05-05T03:26:33.901Z,4.70
2019-05-05T03:29:04.751Z,4.60
2019-05-05T03:31:35.241Z,4.60
2019-05-05T03:34:05.976Z,4.50
2019-05-05T03:36:33.965Z,4.50
2019-05-05T03:39:05.166Z,4.40
2019-05-05T03:41:58.576Z,4.40
2019-05-05T03:44:29.904Z,4.40
2019-05-05T03:46:57.635Z,4.30
2019-05-05T03:49:25.371Z,4.20
2019-05-05T03:51:54.341Z,4.20
2019-05-05T03:54:23.850Z,4.20
2019-05-05T03:57:07.104Z,4.10
2019-05-05T03:59:35.615Z,4.10
2019-05-05T04:02:15.974Z,4.10
2019-05-05T04:04:48.690Z,4.10
2019-05-05T04:07:17.168Z,4.10
2019-05-05T04:09:45.644Z,4.10
2019-05-05T04:12:13.802Z,4.10
2019-05-05T04:14:44.056Z,4.10
2019-05-05T04:17:29.855Z,4.20
2019-05-05T04:19:58.305Z,4.20
2019-05-05T04:22:26.018Z,4.20
2019-05-05T04:24:54.231Z,4.20
2019-05-05T04:27:23.812Z,4.20
2019-05-05T04:29:51.535Z,4.20
2019-05-05T04:32:19.181Z,4.20
2019-05-05T04:34:46.902Z,4.30
2019-05-05T04:37:15.253Z,4.30
2019-05-05T04:39:44.395Z,4.30
2019-05-05T04:42:14.018Z,4.30
2019-05-05T04:44:41.910Z,4.40
2019-05-05T04:47:18.658Z,4.40
2019-05-05T04:49:55.811Z,4.40
2019-05-05T04:52:24.252Z,4.40
2019-05-05T04:54:52.824Z,4.40
2019-05-05T04:57:21.247Z,4.40
2019-05-05T04:59:50.837Z,4.50
2019-05-05T05:02:50.087Z,4.50
2019-05-05T05:05:35.549Z,4.50
2019-05-05T05:08:03.745Z,4.50
2019-05-05T05:10:31.514Z,4.60
2019-05-05T05:12:59.239Z,4.60
2019-05-05T05:15:26.904Z,4.50
2019-05-05T05:18:04.654Z,4.50
2019-05-05T05:20:34.000Z,4.50
2019-05-05T05:23:03.578Z,4.50
2019-05-05T05:25:31.139Z,4.50
2019-05-05T05:27:58.798Z,4.50
2019-05-05T05:30:26.516Z,4.50
2019-05-05T05:32:54.236Z,4.50
2019-05-05T05:35:21.857Z,4.50
2019-05-05T05:37:49.503Z,4.50
2019-05-05T05:40:23.619Z,4.60
2019-05-05T05:42:51.290Z,4.60
2019-05-05T05:45:34.408Z,4.60
2019-05-05T05:48:24.460Z,4.60
2019-05-05T05:51:11.581Z,4.70
2019-05-05T05:53:39.331Z,4.70
2019-05-05T05:56:07.070Z,4.80
2019-05-05T05:58:34.775Z,4.80
2019-05-05T06:01:04.352Z,4.90
2019-05-05T06:03:33.751Z,4.90
2019-05-05T06:06:01.416Z,4.90
2019-05-05T06:08:30.031Z,5.00
2019-05-05T06:10:57.910Z,5.00
2019-05-05T06:13:25.540Z,5.00
2019-05-05T06:15:53.566Z,5.10
2019-05-05T06:18:21.312Z,5.10
2019-05-05T06:20:49.035Z,5.10
2019-05-05T06:23:16.742Z,5.10
2019-05-05T06:25:44.820Z,5.20
2019-05-05T06:28:14.523Z,5.20
2019-05-05T06:30:44.107Z,5.30
2019-05-05T06:33:13.681Z,5.30
2019-05-05T06:35:41.312Z,5.40
2019-05-05T06:38:09.030Z,5.50
2019-05-05T06:40:56.200Z,5.60
2019-05-05T06:43:49.142Z,5.60
2019-05-05T06:46:20.191Z,5.70
2019-05-05T06:48:47.883Z,5.70
2019-05-05T06:51:15.544Z,5.80
2019-05-05T06:53:43.564Z,5.90
2019-05-05T06:56:11.521Z,5.90
2019-05-05T06:58:39.275Z,5.90
2019-05-05T07:01:07.037Z,6.00
2019-05-05T07:03:34.828Z,6.00
2019-05-05T07:06:04.308Z,6.10
2019-05-05T07:08:32.099Z,6.20
2019-05-05T07:10:59.791Z,6.20
2019-05-05T07:13:27.481Z,6.30
2019-05-05T07:15:55.142Z,6.30
2019-05-05T07:18:24.608Z,6.40
2019-05-05T07:20:54.340Z,6.50
2019-05-05T07:23:21.666Z,6.60
2019-05-05T07:25:49.283Z,6.70
2019-05-05T07:28:16.917Z,6.80
2019-05-05T07:30:44.614Z,6.90
2019-05-05T07:33:14.716Z,7.00
2019-05-05T07:35:56.669Z,7.00
2019-05-05T07:38:19.182Z,7.10
2019-05-05T07:40:46.889Z,7.10
2019-05-05T07:43:14.755Z,7.10
2019-05-05T07:45:44.448Z,7.20
2019-05-05T07:48:13.872Z,7.20
2019-05-05T07:50:43.626Z,7.20
2019-05-05T07:53:14.876Z,7.20
2019-05-05T07:55:40.697Z,7.30
2019-05-05T07:58:08.437Z,7.40
2019-05-05T08:00:36.250Z,7.40
2019-05-05T08:03:04.210Z,7.50
2019-05-05T08:05:33.561Z,7.50
2019-05-05T08:08:01.295Z,7.70
2019-05-05T08:10:28.961Z,7.70
2019-05-05T08:12:57.436Z,7.70
2019-05-05T08:15:26.433Z,7.70
2019-05-05T08:18:13.956Z,7.60
2019-05-05T08:20:44.484Z,7.60
2019-05-05T08:23:30.154Z,7.70
2019-05-05T08:26:06.145Z,7.80
2019-05-05T08:28:47.641Z,7.80
2019-05-05T08:31:29.976Z,7.90
2019-05-05T08:34:16.998Z,8.10
2019-05-05T08:37:04.579Z,8.40
2019-05-05T08:39:45.143Z,8.50
2019-05-05T08:42:44.525Z,8.80
2019-05-05T08:45:26.782Z,9.20
2019-05-05T08:48:06.825Z,9.40
2019-05-05T08:50:46.807Z,9.70
2019-05-05T08:53:41.162Z,9.60
2019-05-05T08:56:09.044Z,9.80
2019-05-05T08:58:49.923Z,10.20
2019-05-05T09:01:30.084Z,10.30
2019-05-05T09:04:10.174Z,10.30
2019-05-05T09:06:37.926Z,10.50
2019-05-05T09:09:24.984Z,10.40
2019-05-05T09:12:05.453Z,10.70
2019-05-05T09:17:44.152Z,10.60
2019-05-05T09:20:24.299Z,10.60
2019-05-05T09:23:04.390Z,10.80
2019-05-05T09:26:04.408Z,10.70
2019-05-05T09:29:07.142Z,11.20
2019-05-05T09:31:45.662Z,11.20
2019-05-05T09:34:14.636Z,11.30
2019-05-05T09:36:55.219Z,11.70
2019-05-05T09:39:35.246Z,11.90
2019-05-05T09:42:15.292Z,12.30
2019-05-05T09:44:55.503Z,12.50
2019-05-05T09:47:35.641Z,13.10
2019-05-05T09:50:15.899Z,13.20
2019-05-05T09:52:55.732Z,13.50
2019-05-05T09:55:35.810Z,13.50
2019-05-05T09:58:15.867Z,13.60
2019-05-05T10:00:55.922Z,13.60
2019-05-05T10:03:36.251Z,13.60
2019-05-05T10:06:16.335Z,13.60
2019-05-05T10:08:56.558Z,13.90
2019-05-05T10:11:36.642Z,13.80
2019-05-05T10:14:16.755Z,13.50
2019-05-05T10:16:56.761Z,13.70
2019-05-05T10:19:36.876Z,13.50
2019-05-05T10:22:16.978Z,13.40
2019-05-05T10:25:23.798Z,13.10
2019-05-05T10:28:04.224Z,13.30
2019-05-05T10:30:53.861Z,13.50
2019-05-05T10:33:37.650Z,13.40
2019-05-05T10:36:17.967Z,13.20
2019-05-05T10:39:04.410Z,13.00
2019-05-05T10:41:44.208Z,13.20
2019-05-05T10:44:24.022Z,13.00
2019-05-05T10:50:05.182Z,13.20
2019-05-05T10:52:33.812Z,13.50
2019-05-05T10:55:23.909Z,13.90
2019-05-05T10:57:54.253Z,14.10
2019-05-05T11:03:34.341Z,14.30
2019-05-05T11:06:14.510Z,14.20
2019-05-05T11:08:54.717Z,14.10
2019-05-05T11:11:34.760Z,14.10
2019-05-05T11:14:03.823Z,14.20
2019-05-05T11:16:50.853Z,14.40
2019-05-05T11:19:33.484Z,14.40
2019-05-05T11:22:14.655Z,14.70
2019-05-05T11:25:00.545Z,14.60
2019-05-05T11:27:36.882Z,14.70
2019-05-05T11:30:26.733Z,14.30
2019-05-05T11:33:24.470Z,14.20
2019-05-05T11:36:24.101Z,13.80
2019-05-05T11:39:05.718Z,13.70
2019-05-05T11:41:46.081Z,12.90
2019-05-05T11:44:15.191Z,12.50
2019-05-05T11:47:03.661Z,12.40
2019-05-05T11:49:44.546Z,12.10
2019-05-05T11:52:12.256Z,11.90
2019-05-05T11:55:09.760Z,11.80
2019-05-05T11:57:40.993Z,11.70
2019-05-05T12:00:21.010Z,11.40
2019-05-05T12:03:01.071Z,11.30
2019-05-05T12:05:41.407Z,11.30
2019-05-05T12:08:23.721Z,11.10
2019-05-05T12:11:08.426Z,11.00
2019-05-05T12:13:48.875Z,11.10
2019-05-05T12:16:29.981Z,10.90
2019-05-05T12:19:13.561Z,11.20
2019-05-05T12:21:54.859Z,11.30
2019-05-05T12:24:39.323Z,11.20
2019-05-05T12:30:27.755Z,11.10
2019-05-05T12:33:08.365Z,10.60
2019-05-05T12:35:48.332Z,10.70
2019-05-05T12:38:28.345Z,10.70
2019-05-05T12:41:08.543Z,11.10
2019-05-05T12:43:48.662Z,11.70
2019-05-05T12:46:47.825Z,12.50
2019-05-05T12:49:27.781Z,12.90
2019-05-05T12:52:08.089Z,13.30
2019-05-05T12:54:48.271Z,13.60
2019-05-05T12:57:28.808Z,13.70
2019-05-05T13:00:08.607Z,13.60
2019-05-05T13:06:01.057Z,13.00
2019-05-05T13:08:40.993Z,12.60
2019-05-05T13:11:23.653Z,12.30
2019-05-05T13:14:04.030Z,11.90
2019-05-05T13:16:52.434Z,11.50
2019-05-05T13:28:34.410Z,10.70
2019-05-05T13:31:14.822Z,10.40
2019-05-05T13:33:54.999Z,10.10
2019-05-05T13:36:35.190Z,10.20
2019-05-05T13:39:15.720Z,10.40
2019-05-05T13:41:56.043Z,10.30
2019-05-05T13:44:55.943Z,10.20
2019-05-05T13:47:35.858Z,10.30
2019-05-05T13:53:14.272Z,9.60
2019-05-05T13:56:08.174Z,9.20
2019-05-05T13:58:36.804Z,9.20
2019-05-05T14:01:16.947Z,8.80
2019-05-05T14:03:57.811Z,8.60
2019-05-05T14:06:38.116Z,8.50
2019-05-05T14:09:18.298Z,8.30
2019-05-05T14:11:58.168Z,8.30
2019-05-05T14:14:38.410Z,8.30
2019-05-05T14:17:18.713Z,8.30
2019-05-05T14:20:00.203Z,8.40
2019-05-05T14:22:35.426Z,8.50
2019-05-05T14:25:19.321Z,8.60
2019-05-05T14:27:59.629Z,8.60
2019-05-05T14:30:59.095Z,8.60
2019-05-05T14:33:59.168Z,8.90
2019-05-05T14:36:44.619Z,8.80
2019-05-05T14:39:25.193Z,9.40
2019-05-05T14:42:05.358Z,9.30
2019-05-05T14:44:45.510Z,9.40
2019-05-05T14:47:13.673Z,9.60
2019-05-05T14:50:04.542Z,9.50
2019-05-05T14:52:44.139Z,9.60
2019-05-05T14:55:14.086Z,9.50
2019-05-05T14:58:01.303Z,9.40
2019-05-05T15:00:41.355Z,9.40
2019-05-05T15:03:21.357Z,9.40
2019-05-05T15:06:06.389Z,9.20
2019-05-05T15:09:06.159Z,9.20
2019-05-05T15:12:05.558Z,9.00
2019-05-05T15:14:46.146Z,9.00
2019-05-05T15:17:26.126Z,9.00
2019-05-05T15:20:06.243Z,9.00
2019-05-05T15:22:46.311Z,9.10
2019-05-05T15:25:26.287Z,9.20
2019-05-05T15:28:06.560Z,9.40
2019-05-05T15:30:46.703Z,9.70
2019-05-05T15:33:26.778Z,9.60
2019-05-05T15:36:06.798Z,9.80
2019-05-05T15:38:48.818Z,9.70
2019-05-05T15:41:28.931Z,9.60
2019-05-05T15:44:09.045Z,9.50
2019-05-05T15:46:49.002Z,9.50
2019-05-05T15:49:29.275Z,9.80
2019-05-05T15:52:09.447Z,10.00
2019-05-05T15:54:49.362Z,9.50
2019-05-05T15:57:29.597Z,8.90
2019-05-05T16:00:09.614Z,8.40
2019-05-05T16:02:49.704Z,7.70
2019-05-05T16:05:29.941Z,7.70
2019-05-05T16:08:10.307Z,7.50
2019-05-05T16:10:50.209Z,7.00
2019-05-05T16:13:30.208Z,6.50
2019-05-05T16:16:35.700Z,6.30
2019-05-05T16:19:41.417Z,6.20
2019-05-05T16:22:28.890Z,6.30
2019-05-05T16:25:14.682Z,6.30
2019-05-05T16:27:54.966Z,6.30
2019-05-05T16:30:34.586Z,6.40
2019-05-05T16:33:04.112Z,6.60
2019-05-05T16:35:51.159Z,6.50
2019-05-05T16:38:30.909Z,6.60
2019-05-05T16:41:11.251Z,7.10
2019-05-05T16:43:53.463Z,6.90
2019-05-05T16:46:34.265Z,6.70
2019-05-05T16:49:03.538Z,6.80
2019-05-05T16:57:58.546Z,6.60
2019-05-05T17:00:38.453Z,6.70
2019-05-05T17:03:18.663Z,6.80
2019-05-05T17:06:00.645Z,6.80
2019-05-05T17:08:40.815Z,6.80
2019-05-05T17:11:21.040Z,6.70
2019-05-05T17:14:20.296Z,6.80
2019-05-05T17:17:19.353Z,6.90
2019-05-05T17:20:04.561Z,6.90
2019-05-05T17:22:49.029Z,7.00
2019-05-05T17:25:29.189Z,7.00
2019-05-05T17:28:09.248Z,7.00
2019-05-05T17:30:49.185Z,7.00
2019-05-05T17:33:29.346Z,7.20
2019-05-05T17:36:09.519Z,7.00
2019-05-05T17:38:49.657Z,6.90
2019-05-05T17:41:49.400Z,6.90
2019-05-05T17:44:48.761Z,6.90
2019-05-05T17:47:35.759Z,7.00
2019-05-05T17:50:21.462Z,6.80
2019-05-05T17:53:09.806Z,7.00
2019-05-05T17:55:50.393Z,6.80
2019-05-05T17:58:30.233Z,6.70
2019-05-05T18:01:10.277Z,6.80
2019-05-05T18:03:50.165Z,6.60
2019-05-05T18:06:49.731Z,6.60
2019-05-05T18:09:53.798Z,6.70
2019-05-05T18:12:54.055Z,6.60
2019-05-05T18:15:54.399Z,6.60
2019-05-05T18:18:35.059Z,6.50
2019-05-05T18:21:14.970Z,6.80
2019-05-05T18:23:54.963Z,6.80
2019-05-05T18:26:35.178Z,6.80
2019-05-05T18:29:15.670Z,6.50
2019-05-05T18:31:55.801Z,6.20
2019-05-05T18:34:36.140Z,5.90
2019-05-05T18:37:15.947Z,6.00
2019-05-05T18:39:56.042Z,5.70
2019-05-05T18:42:36.311Z,5.50
2019-05-05T18:45:16.838Z,4.90
2019-05-05T18:47:56.479Z,4.90
2019-05-05T18:50:36.760Z,4.90
2019-05-05T18:53:16.825Z,5.10
2019-05-05T18:55:57.191Z,5.00
2019-05-05T18:58:37.458Z,5.10
2019-05-05T19:01:36.750Z,4.90
2019-05-05T19:07:23.830Z,4.80
2019-05-05T19:10:06.046Z,5.00
2019-05-05T19:12:46.245Z,4.60
2019-05-05T19:15:14.340Z,5.00
2019-05-05T19:18:01.419Z,4.70
2019-05-05T19:23:24.103Z,4.80
2019-05-05T19:26:11.242Z,4.80
2019-05-05T19:28:50.850Z,5.10
2019-05-05T19:31:34.598Z,4.80
2019-05-05T19:34:14.552Z,4.80
2019-05-05T19:36:54.768Z,5.00
2019-05-05T19:39:34.815Z,5.00
2019-05-05T19:42:15.143Z,5.10
2019-05-05T19:44:55.141Z,5.30
2019-05-05T19:47:35.517Z,5.00
2019-05-05T19:50:35.085Z,5.00
2019-05-05T19:53:35.582Z,5.00
2019-05-05T19:56:17.149Z,5.20
2019-05-05T19:58:57.930Z,5.00
2019-05-05T20:01:37.535Z,5.00
2019-05-05T20:04:15.481Z,5.00
2019-05-05T20:06:55.482Z,5.30
2019-05-05T20:09:35.962Z,5.00
2019-05-05T20:12:15.970Z,5.10
2019-05-05T20:14:56.514Z,5.00
2019-05-05T20:17:37.165Z,5.10
2019-05-05T20:20:06.440Z,5.00
2019-05-05T20:22:54.788Z,5.00
2019-05-05T20:25:35.386Z,5.00
2019-05-05T20:28:15.914Z,5.10
2019-05-05T20:30:43.585Z,5.20
2019-05-05T20:33:50.077Z,5.00
2019-05-05T20:36:56.566Z,5.10
2019-05-05T20:39:37.068Z,5.20
2019-05-05T20:42:17.185Z,4.80
2019-05-05T20:44:57.493Z,5.10
2019-05-05T20:47:40.043Z,5.20
2019-05-05T20:50:19.691Z,4.80
2019-05-05T20:52:59.725Z,5.00
2019-05-05T20:55:40.817Z,4.90
2019-05-05T20:58:21.076Z,4.90
2019-05-05T21:01:01.108Z,5.00
2019-05-05T21:03:41.164Z,4.90
2019-05-05T21:06:21.423Z,5.20
2019-05-05T21:09:01.816Z,4.90
2019-05-05T21:11:43.660Z,5.10
2019-05-05T21:14:33.679Z,4.90
2019-05-05T21:17:06.162Z,4.90
2019-05-05T21:19:46.375Z,4.90
2019-05-05T21:22:33.726Z,5.10
2019-05-05T21:28:26.599Z,5.00
2019-05-05T21:31:06.597Z,5.00
2019-05-05T21:33:46.926Z,5.10
2019-05-05T21:36:26.854Z,5.00
2019-05-05T21:38:54.940Z,5.00
2019-05-05T21:44:26.108Z,5.10
2019-05-05T21:47:06.054Z,5.30
2019-05-05T21:49:46.344Z,5.20
2019-05-05T21:55:26.047Z,5.10
2019-05-05T21:58:13.565Z,5.10
2019-05-05T22:01:00.565Z,5.00
2019-05-05T22:03:40.245Z,5.30
2019-05-05T22:06:20.478Z,5.10
2019-05-05T22:08:48.175Z,5.00
2019-05-05T22:11:28.804Z,5.10
2019-05-05T22:14:08.708Z,5.10
2019-05-05T22:16:48.944Z,5.10
2019-05-05T22:19:31.564Z,5.10
2019-05-05T22:22:14.543Z,5.30
2019-05-05T22:24:54.367Z,5.20
2019-05-05T22:27:34.601Z,5.20
2019-05-05T22:30:14.773Z,5.30
2019-05-05T22:32:55.293Z,5.10
2019-05-05T22:35:35.494Z,5.10
2019-05-05T22:38:15.621Z,5.10
2019-05-05T22:40:55.770Z,5.30
2019-05-05T22:43:35.741Z,5.10
2019-05-05T22:46:16.000Z,5.20
2019-05-05T22:48:56.339Z,5.00
2019-05-05T22:51:36.329Z,5.00
2019-05-05T22:54:16.521Z,5.00
2019-05-05T22:59:55.677Z,5.00
2019-05-05T23:05:43.929Z,5.10
2019-05-05T23:08:25.276Z,5.10
2019-05-05T23:11:05.407Z,4.90
2019-05-05T23:13:45.608Z,5.10
2019-05-05T23:16:34.004Z,5.10
2019-05-05T23:19:13.915Z,5.00
2019-05-05T23:27:54.576Z,5.00
2019-05-05T23:30:41.407Z,5.10
2019-05-05T23:33:17.091Z,5.10
2019-05-05T23:35:57.146Z,4.90
2019-05-05T23:38:38.445Z,5.20
2019-05-05T23:41:18.525Z,5.10
2019-05-05T23:43:59.196Z,5.10
2019-05-05T23:46:38.851Z,5.00
2019-05-05T23:49:19.103Z,5.10
2019-05-05T23:51:59.265Z,4.90
2019-05-05T23:54:39.455Z,5.10
2019-05-05T23:57:19.644Z,4.80
